createdAt,value
2022-11-21T00:02:00.534Z,96046.84
2022-11-21T00:12:04.351Z,96042.60
2022-11-21T00:22:07.970Z,96032.77
2022-11-21T00:32:11.485Z,96029.79
2022-11-21T00:42:15.144Z,96023.70
2022-11-21T00:52:18.820Z,96025.17
2022-11-21T01:02:22.480Z,96028.73
2022-11-21T01:12:26.079Z,96020.79
2022-11-21T01:22:29.696Z,96028.54
2022-11-21T01:32:33.278Z,96021.27
2022-11-21T01:43:04.156Z,96022.29
2022-11-21T01:53:07.785Z,96015.63
2022-11-21T02:03:14.785Z,96013.25
2022-11-21T02:13:18.349Z,96014.53
2022-11-21T02:23:34.982Z,96013.56
2022-11-21T02:33:38.523Z,95999.34
2022-11-21T02:43:51.011Z,95977.86
2022-11-21T02:53:54.499Z,95991.79
2022-11-21T03:03:58.043Z,95990.14
2022-11-21T03:14:01.562Z,95985.97
2022-11-21T03:24:05.995Z,95986.16
2022-11-21T03:34:09.580Z,95984.63
2022-11-21T03:44:13.495Z,95976.20
2022-11-21T03:54:17.003Z,95976.93
2022-11-21T04:04:21.058Z,95969.39
2022-11-21T04:14:24.616Z,95962.73
2022-11-21T04:24:28.303Z,95959.21
2022-11-21T04:34:32.005Z,95974.92
2022-11-21T04:44:35.648Z,95983.52
2022-11-21T04:54:39.205Z,95973.30
2022-11-21T05:04:42.727Z,95961.56
2022-11-21T05:14:46.313Z,95957.34
2022-11-21T05:24:49.904Z,95952.81
2022-11-21T05:34:53.501Z,95927.89
2022-11-21T05:44:57.002Z,95911.23
2022-11-21T05:55:00.627Z,95907.44
2022-11-21T06:05:04.594Z,95913.11
2022-11-21T06:15:08.605Z,95915.04
2022-11-21T06:25:12.270Z,95917.97
2022-11-21T06:35:16.361Z,95910.29
2022-11-21T06:45:19.976Z,95919.27
2022-11-21T06:55:23.919Z,95917.06
2022-11-21T07:05:28.968Z,95910.84
2022-11-21T07:15:33.416Z,95908.98
2022-11-21T07:25:38.067Z,95899.13
2022-11-21T07:35:43.699Z,95903.73
2022-11-21T07:45:47.725Z,95896.95
2022-11-21T07:55:51.479Z,95882.92
2022-11-21T08:05:55.119Z,95879.16
2022-11-21T08:15:59.040Z,95872.20
2022-11-21T08:26:02.689Z,95863.91
2022-11-21T08:36:07.360Z,95854.34
2022-11-21T08:46:10.976Z,95857.20
2022-11-21T08:56:14.935Z,95859.38
2022-11-21T09:06:18.604Z,95853.86
2022-11-21T09:16:41.102Z,95857.61
2022-11-21T09:26:46.966Z,95854.09
2022-11-21T09:36:50.886Z,95837.36
2022-11-21T09:47:04.535Z,95832.71
2022-11-21T09:57:12.419Z,95818.80
2022-11-21T10:07:27.401Z,95813.36
2022-11-21T10:17:49.836Z,95809.98
2022-11-21T10:28:14.609Z,95805.27
2022-11-21T10:38:29.459Z,95799.48
2022-11-21T10:48:33.583Z,95790.04
2022-11-21T10:58:44.688Z,95778.71
2022-11-21T11:08:53.187Z,95776.98
2022-11-21T11:19:32.916Z,95769.75
2022-11-21T11:29:52.998Z,95762.13
2022-11-21T11:40:08.981Z,95754.98
2022-11-21T11:50:19.628Z,95747.98
2022-11-21T12:00:31.329Z,95740.21
2022-11-21T12:11:03.366Z,95740.05
2022-11-21T12:21:20.992Z,95724.63
2022-11-21T12:32:03.065Z,95720.31
2022-11-21T12:42:36.815Z,95712.70
2022-11-21T12:53:24.274Z,95717.27
2022-11-21T13:03:39.923Z,95721.45
2022-11-21T13:13:47.313Z,95726.39
2022-11-21T13:23:51.231Z,95726.95
2022-11-21T13:33:55.003Z,95724.85
2022-11-21T13:44:31.238Z,95727.45
2022-11-21T13:54:42.862Z,95728.97
2022-11-21T14:05:06.577Z,95719.63
2022-11-21T14:15:22.321Z,95709.39
2022-11-21T14:25:41.485Z,95719.48
2022-11-21T14:35:51.994Z,95720.70
2022-11-21T14:45:55.623Z,95725.88
2022-11-21T14:56:01.611Z,95722.67
2022-11-21T15:06:11.143Z,95718.23
2022-11-21T15:16:15.213Z,95727.30
2022-11-21T15:26:31.983Z,95731.11
2022-11-21T15:36:35.640Z,95738.02
2022-11-21T15:46:42.785Z,95741.60
2022-11-21T15:56:47.420Z,95740.85
2022-11-21T16:06:51.382Z,95736.52
2022-11-21T16:16:56.204Z,95728.36
2022-11-21T16:27:00.019Z,95727.38
2022-11-21T16:37:07.274Z,95724.97
2022-11-21T16:47:11.802Z,95726.87
2022-11-21T16:57:16.126Z,95731.71
2022-11-21T17:07:21.098Z,95738.84
2022-11-21T17:17:25.702Z,95743.86
2022-11-21T17:27:33.981Z,95741.08
2022-11-21T17:37:39.900Z,95741.44
2022-11-21T17:47:44.581Z,95742.48
2022-11-21T17:57:49.463Z,95746.06
2022-11-21T18:07:55.126Z,95749.27
2022-11-21T18:17:59.560Z,95756.11
2022-11-21T18:28:06.024Z,95753.61
2022-11-21T18:38:40.222Z,95753.80
2022-11-21T18:49:01.609Z,95758.14
2022-11-21T18:59:09.460Z,95758.14
2022-11-21T19:09:16.110Z,95761.64
2022-11-21T19:19:37.220Z,95761.16
2022-11-21T19:29:42.582Z,95771.13
2022-11-21T19:39:47.967Z,95778.11
2022-11-21T19:49:54.931Z,95782.34
2022-11-21T19:59:59.403Z,95791.20
2022-11-21T20:10:05.324Z,95797.67
2022-11-21T20:20:11.139Z,95802.66
2022-11-21T20:30:17.455Z,95806.86
2022-11-21T20:40:22.610Z,95808.92
2022-11-21T20:51:18.044Z,95806.53
2022-11-21T21:00:52.897Z,95811.62
2022-11-21T21:11:20.930Z,95814.39
2022-11-21T21:21:35.199Z,95818.09
2022-11-21T21:31:40.241Z,95816.86
2022-11-21T21:41:47.518Z,95826.22
2022-11-21T21:51:51.559Z,95825.91
2022-11-21T22:01:55.700Z,95821.40
2022-11-21T22:11:59.791Z,95821.05
2022-11-21T22:22:03.455Z,95821.58
2022-11-21T22:32:07.234Z,95821.23
2022-11-21T22:42:11.023Z,95821.80
2022-11-21T22:52:14.985Z,95826.77
2022-11-21T23:02:18.927Z,95819.80
2022-11-21T23:12:23.646Z,95808.48
2022-11-21T23:22:27.288Z,95801.47
2022-11-21T23:32:31.069Z,95792.45
2022-11-21T23:42:36.157Z,95789.37
2022-11-21T23:52:39.816Z,95773.09
